sensor_id;sensor_type;location;lat;lon;timestamp;P1;P2;P0
46591;PMS6003;32314;48.748;9.656;2023-06-19T00:00:50;14.75;14.75;12.75
46591;PMS6003;32314;48.748;9.656;2023-06-19T00:03:36;18.50;18.50;15.50
46591;PMS6003;32314;48.748;9.656;2023-06-19T00:06:22;20.25;19.00;13.75
46591;PMS6003;32314;48.748;9.656;2023-06-19T00:09:11;18.50;18.50;15.75
46591;PMS6003;32314;48.748;9.656;2023-06-19T00:11:57;21.50;21.00;16.00
46591;PMS6003;32314;48.748;9.656;2023-06-19T00:14:47;20.00;20.00;14.75
46591;PMS6003;32314;48.748;9.656;2023-06-19T00:17:33;19.00;19.00;16.25
46591;PMS6003;32314;48.748;9.656;2023-06-19T00:20:22;20.75;20.50;16.75
46591;PMS6003;32314;48.748;9.656;2023-06-19T00:23:08;22.75;22.50;17.00
46591;PMS6003;32314;48.748;9.656;2023-06-19T00:25:56;19.00;19.00;16.25
46591;PMS6003;32314;48.748;9.656;2023-06-19T00:28:49;21.75;20.75;15.50
46591;PMS6003;32314;48.748;9.656;2023-06-19T00:31:35;20.25;20.25;15.00
46591;PMS6003;32314;48.748;9.656;2023-06-19T00:34:22;21.50;20.00;17.00
46591;PMS6003;32314;48.748;9.656;2023-06-19T00:37:11;20.25;20.25;16.25
46591;PMS6003;32314;48.748;9.656;2023-06-19T00:39:58;19.50;19.50;16.25
46591;PMS6003;32314;48.748;9.656;2023-06-19T00:42:46;24.00;24.00;19.00
46591;PMS6003;32314;48.748;9.656;2023-06-19T00:45:32;23.25;21.50;18.00
46591;PMS6003;32314;48.748;9.656;2023-06-19T00:48:20;21.50;20.00;16.00
46591;PMS6003;32314;48.748;9.656;2023-06-19T00:51:10;17.75;17.75;15.00
46591;PMS6003;32314;48.748;9.656;2023-06-19T00:53:56;21.50;18.75;14.25
46591;PMS6003;32314;48.748;9.656;2023-06-19T00:56:42;21.25;21.25;15.50
46591;PMS6003;32314;48.748;9.656;2023-06-19T00:59:27;21.00;21.00;17.00
46591;PMS6003;32314;48.748;9.656;2023-06-19T01:02:15;21.75;21.75;17.50
46591;PMS6003;32314;48.748;9.656;2023-06-19T01:05:01;24.00;23.00;18.00
46591;PMS6003;32314;48.748;9.656;2023-06-19T01:10:51;19.75;19.75;15.75
46591;PMS6003;32314;48.748;9.656;2023-06-19T01:13:48;24.50;24.25;20.00
46591;PMS6003;32314;48.748;9.656;2023-06-19T01:16:45;18.25;18.25;15.75
46591;PMS6003;32314;48.748;9.656;2023-06-19T01:19:32;20.25;20.25;15.75
46591;PMS6003;32314;48.748;9.656;2023-06-19T01:22:25;20.75;20.75;17.50
46591;PMS6003;32314;48.748;9.656;2023-06-19T01:25:17;20.25;20.25;16.25
46591;PMS6003;32314;48.748;9.656;2023-06-19T01:28:09;20.50;19.75;15.25
46591;PMS6003;32314;48.748;9.656;2023-06-19T01:30:58;18.50;17.50;13.25
46591;PMS6003;32314;48.748;9.656;2023-06-19T01:33:46;18.00;18.00;15.25
46591;PMS6003;32314;48.748;9.656;2023-06-19T01:36:34;21.50;21.50;16.75
46591;PMS6003;32314;48.748;9.656;2023-06-19T01:39:21;23.50;22.75;17.50
46591;PMS6003;32314;48.748;9.656;2023-06-19T01:42:07;18.50;18.25;14.50
46591;PMS6003;32314;48.748;9.656;2023-06-19T01:44:56;19.75;19.75;16.50
46591;PMS6003;32314;48.748;9.656;2023-06-19T01:47:42;18.00;18.00;15.00
46591;PMS6003;32314;48.748;9.656;2023-06-19T01:50:30;23.00;23.00;18.50
46591;PMS6003;32314;48.748;9.656;2023-06-19T01:53:16;18.75;18.50;15.00
46591;PMS6003;32314;48.748;9.656;2023-06-19T01:56:02;19.75;19.75;15.25
46591;PMS6003;32314;48.748;9.656;2023-06-19T01:58:49;22.00;22.00;17.75
46591;PMS6003;32314;48.748;9.656;2023-06-19T02:01:35;22.25;20.50;16.00
46591;PMS6003;32314;48.748;9.656;2023-06-19T02:04:21;19.50;19.50;15.75
46591;PMS6003;32314;48.748;9.656;2023-06-19T02:07:09;18.50;18.50;15.00
46591;PMS6003;32314;48.748;9.656;2023-06-19T02:09:57;20.00;18.25;16.00
46591;PMS6003;32314;48.748;9.656;2023-06-19T02:12:46;21.00;19.75;16.25
46591;PMS6003;32314;48.748;9.656;2023-06-19T02:15:32;23.75;23.75;18.00
46591;PMS6003;32314;48.748;9.656;2023-06-19T02:18:18;23.25;22.00;17.00
46591;PMS6003;32314;48.748;9.656;2023-06-19T02:21:04;21.50;21.00;17.00
46591;PMS6003;32314;48.748;9.656;2023-06-19T02:23:49;20.25;20.25;17.25
46591;PMS6003;32314;48.748;9.656;2023-06-19T02:26:36;21.00;21.00;17.50
46591;PMS6003;32314;48.748;9.656;2023-06-19T02:29:22;18.50;18.50;14.00
46591;PMS6003;32314;48.748;9.656;2023-06-19T02:32:08;19.75;19.75;17.25
46591;PMS6003;32314;48.748;9.656;2023-06-19T02:34:54;18.75;18.75;15.50
46591;PMS6003;32314;48.748;9.656;2023-06-19T02:37:40;20.00;20.00;15.25
46591;PMS6003;32314;48.748;9.656;2023-06-19T02:40:26;20.50;19.50;14.25
46591;PMS6003;32314;48.748;9.656;2023-06-19T02:43:12;24.00;24.00;18.00
46591;PMS6003;32314;48.748;9.656;2023-06-19T02:45:58;22.50;20.25;16.25
46591;PMS6003;32314;48.748;9.656;2023-06-19T02:48:44;20.25;20.00;15.75
46591;PMS6003;32314;48.748;9.656;2023-06-19T02:51:30;19.25;19.25;15.00
46591;PMS6003;32314;48.748;9.656;2023-06-19T02:54:16;19.00;17.50;14.75
46591;PMS6003;32314;48.748;9.656;2023-06-19T02:57:02;21.00;21.00;16.75
46591;PMS6003;32314;48.748;9.656;2023-06-19T02:59:51;20.25;20.25;17.00
46591;PMS6003;32314;48.748;9.656;2023-06-19T03:02:37;23.00;23.00;17.75
46591;PMS6003;32314;48.748;9.656;2023-06-19T03:05:23;21.50;20.00;15.00
46591;PMS6003;32314;48.748;9.656;2023-06-19T03:08:09;19.00;19.00;15.25
46591;PMS6003;32314;48.748;9.656;2023-06-19T03:10:55;21.25;20.75;17.00
46591;PMS6003;32314;48.748;9.656;2023-06-19T03:13:50;21.50;21.50;17.00
46591;PMS6003;32314;48.748;9.656;2023-06-19T03:16:39;18.50;18.50;15.25
46591;PMS6003;32314;48.748;9.656;2023-06-19T03:19:25;22.50;21.25;17.00
46591;PMS6003;32314;48.748;9.656;2023-06-19T03:22:11;22.75;22.00;18.00
46591;PMS6003;32314;48.748;9.656;2023-06-19T03:24:57;18.75;18.75;16.00
46591;PMS6003;32314;48.748;9.656;2023-06-19T03:27:43;16.00;16.00;13.25
46591;PMS6003;32314;48.748;9.656;2023-06-19T03:30:29;17.50;17.50;15.00
46591;PMS6003;32314;48.748;9.656;2023-06-19T03:33:15;18.25;18.25;14.50
46591;PMS6003;32314;48.748;9.656;2023-06-19T03:36:04;19.25;19.25;14.25
46591;PMS6003;32314;48.748;9.656;2023-06-19T03:39:13;22.25;21.00;17.00
46591;PMS6003;32314;48.748;9.656;2023-06-19T03:42:00;21.50;20.00;15.50
46591;PMS6003;32314;48.748;9.656;2023-06-19T03:44:49;15.00;15.00;10.75
46591;PMS6003;32314;48.748;9.656;2023-06-19T03:47:37;21.50;21.50;15.75
46591;PMS6003;32314;48.748;9.656;2023-06-19T03:50:23;16.00;16.00;13.50
46591;PMS6003;32314;48.748;9.656;2023-06-19T03:53:10;18.25;17.75;13.75
46591;PMS6003;32314;48.748;9.656;2023-06-19T03:56:07;16.00;15.00;12.75
46591;PMS6003;32314;48.748;9.656;2023-06-19T03:59:02;21.50;19.50;16.00
46591;PMS6003;32314;48.748;9.656;2023-06-19T04:01:50;20.50;20.50;16.50
46591;PMS6003;32314;48.748;9.656;2023-06-19T04:04:50;19.75;18.25;14.50
46591;PMS6003;32314;48.748;9.656;2023-06-19T04:07:36;18.50;18.50;14.75
46591;PMS6003;32314;48.748;9.656;2023-06-19T04:10:22;15.25;15.00;13.00
46591;PMS6003;32314;48.748;9.656;2023-06-19T04:13:08;16.75;16.75;14.00
46591;PMS6003;32314;48.748;9.656;2023-06-19T04:15:53;16.75;16.75;14.25
46591;PMS6003;32314;48.748;9.656;2023-06-19T04:18:42;15.75;15.75;13.50
46591;PMS6003;32314;48.748;9.656;2023-06-19T04:21:28;22.00;18.75;14.75
46591;PMS6003;32314;48.748;9.656;2023-06-19T04:24:14;19.75;19.75;14.50
46591;PMS6003;32314;48.748;9.656;2023-06-19T04:27:00;18.25;18.25;16.00
46591;PMS6003;32314;48.748;9.656;2023-06-19T04:29:46;17.75;16.50;13.00
46591;PMS6003;32314;48.748;9.656;2023-06-19T04:32:32;15.25;15.25;11.00
46591;PMS6003;32314;48.748;9.656;2023-06-19T04:35:22;14.25;14.00;11.50
46591;PMS6003;32314;48.748;9.656;2023-06-19T04:38:09;15.00;14.00;13.00
46591;PMS6003;32314;48.748;9.656;2023-06-19T04:40:55;17.00;17.00;13.75
46591;PMS6003;32314;48.748;9.656;2023-06-19T04:43:43;16.00;14.50;12.25
46591;PMS6003;32314;48.748;9.656;2023-06-19T04:46:28;14.25;14.25;11.75
46591;PMS6003;32314;48.748;9.656;2023-06-19T04:49:14;13.00;13.00;12.00
46591;PMS6003;32314;48.748;9.656;2023-06-19T04:52:00;13.75;13.75;11.50
46591;PMS6003;32314;48.748;9.656;2023-06-19T04:54:46;11.00;11.00;10.00
46591;PMS6003;32314;48.748;9.656;2023-06-19T04:57:35;15.00;15.00;12.00
46591;PMS6003;32314;48.748;9.656;2023-06-19T05:00:24;13.00;11.75;11.00
46591;PMS6003;32314;48.748;9.656;2023-06-19T05:03:13;15.50;14.00;11.00
46591;PMS6003;32314;48.748;9.656;2023-06-19T05:05:59;15.00;15.00;12.00
46591;PMS6003;32314;48.748;9.656;2023-06-19T05:08:48;13.50;13.50;11.25
46591;PMS6003;32314;48.748;9.656;2023-06-19T05:11:36;16.75;15.50;13.00
46591;PMS6003;32314;48.748;9.656;2023-06-19T05:14:26;15.50;15.25;12.00
46591;PMS6003;32314;48.748;9.656;2023-06-19T05:17:11;13.25;13.25;10.25
46591;PMS6003;32314;48.748;9.656;2023-06-19T05:19:58;16.00;16.00;12.00
46591;PMS6003;32314;48.748;9.656;2023-06-19T05:25:46;16.25;16.25;12.00
46591;PMS6003;32314;48.748;9.656;2023-06-19T05:28:32;12.50;12.50;10.50
46591;PMS6003;32314;48.748;9.656;2023-06-19T05:31:18;14.00;14.00;11.00
46591;PMS6003;32314;48.748;9.656;2023-06-19T05:34:06;13.75;13.75;10.00
46591;PMS6003;32314;48.748;9.656;2023-06-19T05:36:55;13.00;13.00;10.00
46591;PMS6003;32314;48.748;9.656;2023-06-19T05:39:41;14.25;14.25;11.75
46591;PMS6003;32314;48.748;9.656;2023-06-19T05:42:27;9.50;9.50;8.00
46591;PMS6003;32314;48.748;9.656;2023-06-19T05:45:13;11.75;11.00;9.75
46591;PMS6003;32314;48.748;9.656;2023-06-19T05:47:59;9.75;8.75;7.75
46591;PMS6003;32314;48.748;9.656;2023-06-19T05:50:44;8.50;8.00;7.75
46591;PMS6003;32314;48.748;9.656;2023-06-19T05:53:30;10.00;10.00;8.00
46591;PMS6003;32314;48.748;9.656;2023-06-19T05:56:17;9.25;9.25;8.00
46591;PMS6003;32314;48.748;9.656;2023-06-19T05:59:03;9.25;8.75;7.75
46591;PMS6003;32314;48.748;9.656;2023-06-19T06:01:49;7.50;7.50;7.00
46591;PMS6003;32314;48.748;9.656;2023-06-19T06:04:38;9.25;9.25;8.25
46591;PMS6003;32314;48.748;9.656;2023-06-19T06:07:24;8.75;7.25;6.25
46591;PMS6003;32314;48.748;9.656;2023-06-19T06:10:13;8.00;8.00;7.50
46591;PMS6003;32314;48.748;9.656;2023-06-19T06:13:02;7.75;7.75;7.00
46591;PMS6003;32314;48.748;9.656;2023-06-19T06:15:53;8.25;8.25;7.00
46591;PMS6003;32314;48.748;9.656;2023-06-19T06:18:39;6.00;6.00;5.25
46591;PMS6003;32314;48.748;9.656;2023-06-19T06:21:25;8.50;8.25;7.00
46591;PMS6003;32314;48.748;9.656;2023-06-19T06:24:19;5.75;5.50;5.00
46591;PMS6003;32314;48.748;9.656;2023-06-19T06:27:05;2.25;2.25;2.25
46591;PMS6003;32314;48.748;9.656;2023-06-19T06:29:51;7.25;6.00;5.00
46591;PMS6003;32314;48.748;9.656;2023-06-19T06:32:37;6.25;6.25;5.25
46591;PMS6003;32314;48.748;9.656;2023-06-19T06:35:23;5.50;5.50;4.50
46591;PMS6003;32314;48.748;9.656;2023-06-19T06:38:09;4.75;4.75;4.25
46591;PMS6003;32314;48.748;9.656;2023-06-19T06:40:58;5.00;5.00;5.00
46591;PMS6003;32314;48.748;9.656;2023-06-19T06:43:44;7.00;6.00;5.00
46591;PMS6003;32314;48.748;9.656;2023-06-19T06:46:30;6.50;6.00;5.00
46591;PMS6003;32314;48.748;9.656;2023-06-19T06:49:16;4.50;3.50;3.50
46591;PMS6003;32314;48.748;9.656;2023-06-19T06:52:14;3.50;3.50;3.00
46591;PMS6003;32314;48.748;9.656;2023-06-19T06:55:00;5.75;4.00;3.25
46591;PMS6003;32314;48.748;9.656;2023-06-19T06:57:46;6.50;6.50;5.25
46591;PMS6003;32314;48.748;9.656;2023-06-19T07:00:32;4.00;3.75;3.75
46591;PMS6003;32314;48.748;9.656;2023-06-19T07:03:18;4.00;4.00;4.00
46591;PMS6003;32314;48.748;9.656;2023-06-19T07:06:04;5.33;5.00;4.00
46591;PMS6003;32314;48.748;9.656;2023-06-19T07:08:50;3.33;3.33;3.00
46591;PMS6003;32314;48.748;9.656;2023-06-19T07:11:35;3.00;3.00;3.00
46591;PMS6003;32314;48.748;9.656;2023-06-19T07:14:21;5.75;4.75;4.00
46591;PMS6003;32314;48.748;9.656;2023-06-19T07:17:07;3.67;3.67;3.33
46591;PMS6003;32314;48.748;9.656;2023-06-19T07:19:53;4.33;4.33;3.00
46591;PMS6003;32314;48.748;9.656;2023-06-19T07:22:39;2.00;2.00;2.00
46591;PMS6003;32314;48.748;9.656;2023-06-19T07:25:25;4.75;3.25;3.00
46591;PMS6003;32314;48.748;9.656;2023-06-19T07:28:12;3.25;3.25;3.25
46591;PMS6003;32314;48.748;9.656;2023-06-19T07:30:58;3.00;3.00;3.00
46591;PMS6003;32314;48.748;9.656;2023-06-19T07:33:44;4.50;4.50;3.25
46591;PMS6003;32314;48.748;9.656;2023-06-19T07:36:30;2.00;2.00;2.00
46591;PMS6003;32314;48.748;9.656;2023-06-19T07:39:19;2.00;2.00;2.00
46591;PMS6003;32314;48.748;9.656;2023-06-19T07:42:05;4.00;4.00;3.00
46591;PMS6003;32314;48.748;9.656;2023-06-19T07:44:50;3.25;3.25;3.00
46591;PMS6003;32314;48.748;9.656;2023-06-19T07:47:36;3.50;3.50;3.00
46591;PMS6003;32314;48.748;9.656;2023-06-19T07:50:22;3.50;3.50;3.00
46591;PMS6003;32314;48.748;9.656;2023-06-19T07:53:08;5.00;5.00;4.00
46591;PMS6003;32314;48.748;9.656;2023-06-19T07:55:54;4.00;4.00;3.00
46591;PMS6003;32314;48.748;9.656;2023-06-19T07:58:40;3.00;3.00;2.67
46591;PMS6003;32314;48.748;9.656;2023-06-19T08:01:26;4.00;4.00;3.75
46591;PMS6003;32314;48.748;9.656;2023-06-19T08:04:15;4.67;4.67;3.67
46591;PMS6003;32314;48.748;9.656;2023-06-19T08:07:00;6.75;5.50;4.00
46591;PMS6003;32314;48.748;9.656;2023-06-19T08:09:46;4.00;4.00;3.33
46591;PMS6003;32314;48.748;9.656;2023-06-19T08:12:32;3.00;3.00;3.00
46591;PMS6003;32314;48.748;9.656;2023-06-19T08:15:18;4.25;4.25;4.00
46591;PMS6003;32314;48.748;9.656;2023-06-19T08:18:04;4.25;4.25;4.00
46591;PMS6003;32314;48.748;9.656;2023-06-19T08:20:50;5.75;4.00;3.75
46591;PMS6003;32314;48.748;9.656;2023-06-19T08:23:36;3.75;3.75;3.75
46591;PMS6003;32314;48.748;9.656;2023-06-19T08:26:23;3.25;3.25;3.00
46591;PMS6003;32314;48.748;9.656;2023-06-19T08:29:09;3.50;3.50;3.00
46591;PMS6003;32314;48.748;9.656;2023-06-19T08:31:55;4.00;4.00;4.00
46591;PMS6003;32314;48.748;9.656;2023-06-19T08:34:41;2.75;2.75;2.25
46591;PMS6003;32314;48.748;9.656;2023-06-19T08:37:27;3.50;3.50;3.00
46591;PMS6003;32314;48.748;9.656;2023-06-19T08:40:13;4.00;4.00;3.50
46591;PMS6003;32314;48.748;9.656;2023-06-19T08:43:08;3.33;2.00;2.00
46591;PMS6003;32314;48.748;9.656;2023-06-19T08:46:11;3.75;3.75;3.25
46591;PMS6003;32314;48.748;9.656;2023-06-19T08:48:59;5.00;5.00;4.00
46591;PMS6003;32314;48.748;9.656;2023-06-19T08:51:46;3.00;3.00;3.00
46591;PMS6003;32314;48.748;9.656;2023-06-19T08:54:32;3.00;3.00;3.00
46591;PMS6003;32314;48.748;9.656;2023-06-19T08:57:18;4.00;4.00;3.50
46591;PMS6003;32314;48.748;9.656;2023-06-19T09:00:04;5.00;5.00;4.75
46591;PMS6003;32314;48.748;9.656;2023-06-19T09:02:59;4.00;4.00;3.75
46591;PMS6003;32314;48.748;9.656;2023-06-19T09:05:47;3.75;3.75;3.00
46591;PMS6003;32314;48.748;9.656;2023-06-19T09:08:37;5.25;5.25;4.50
46591;PMS6003;32314;48.748;9.656;2023-06-19T09:11:23;4.00;3.75;3.00
46591;PMS6003;32314;48.748;9.656;2023-06-19T09:14:10;3.25;3.25;3.00
46591;PMS6003;32314;48.748;9.656;2023-06-19T09:16:56;4.75;4.25;3.25
46591;PMS6003;32314;48.748;9.656;2023-06-19T09:19:48;4.25;3.00;2.75
46591;PMS6003;32314;48.748;9.656;2023-06-19T09:22:38;3.00;3.00;3.00
46591;PMS6003;32314;48.748;9.656;2023-06-19T09:25:27;1.25;1.25;1.00
46591;PMS6003;32314;48.748;9.656;2023-06-19T09:28:17;1.00;1.00;1.00
46591;PMS6003;32314;48.748;9.656;2023-06-19T09:31:16;4.00;4.00;3.00
46591;PMS6003;32314;48.748;9.656;2023-06-19T09:34:03;2.00;2.00;1.75
46591;PMS6003;32314;48.748;9.656;2023-06-19T09:36:52;1.00;1.00;1.00
46591;PMS6003;32314;48.748;9.656;2023-06-19T09:39:41;1.00;1.00;1.00
46591;PMS6003;32314;48.748;9.656;2023-06-19T09:42:30;0.50;0.50;0.50
46591;PMS6003;32314;48.748;9.656;2023-06-19T09:45:18;1.00;0.50;0.00
46591;PMS6003;32314;48.748;9.656;2023-06-19T09:48:12;3.00;1.75;1.75
46591;PMS6003;32314;48.748;9.656;2023-06-19T09:51:17;2.00;2.00;2.00
46591;PMS6003;32314;48.748;9.656;2023-06-19T09:54:11;2.50;2.50;2.50
46591;PMS6003;32314;48.748;9.656;2023-06-19T09:57:03;2.00;2.00;2.00
46591;PMS6003;32314;48.748;9.656;2023-06-19T09:59:57;2.00;2.00;1.50
46591;PMS6003;32314;48.748;9.656;2023-06-19T10:02:57;2.00;2.00;2.00
46591;PMS6003;32314;48.748;9.656;2023-06-19T10:05:57;1.25;1.25;1.00
46591;PMS6003;32314;48.748;9.656;2023-06-19T10:08:50;3.75;3.75;3.00
46591;PMS6003;32314;48.748;9.656;2023-06-19T10:11:52;3.00;3.00;2.50
46591;PMS6003;32314;48.748;9.656;2023-06-19T10:18:17;3.25;3.25;3.00
46591;PMS6003;32314;48.748;9.656;2023-06-19T10:21:24;3.50;3.50;2.75
46591;PMS6003;32314;48.748;9.656;2023-06-19T10:24:18;3.75;3.75;3.75
46591;PMS6003;32314;48.748;9.656;2023-06-19T10:27:20;2.00;2.00;1.50
46591;PMS6003;32314;48.748;9.656;2023-06-19T10:30:18;2.00;2.00;2.00
46591;PMS6003;32314;48.748;9.656;2023-06-19T10:33:07;2.25;2.25;2.25
46591;PMS6003;32314;48.748;9.656;2023-06-19T10:35:55;4.00;4.00;3.25
46591;PMS6003;32314;48.748;9.656;2023-06-19T10:38:41;2.00;2.00;2.00
46591;PMS6003;32314;48.748;9.656;2023-06-19T10:41:32;4.50;4.50;3.50
46591;PMS6003;32314;48.748;9.656;2023-06-19T10:44:24;1.75;1.75;1.50
46591;PMS6003;32314;48.748;9.656;2023-06-19T10:47:14;3.00;3.00;3.00
46591;PMS6003;32314;48.748;9.656;2023-06-19T10:50:04;3.00;3.00;3.00
46591;PMS6003;32314;48.748;9.656;2023-06-19T10:52:55;2.75;2.75;2.75
46591;PMS6003;32314;48.748;9.656;2023-06-19T10:55:43;3.00;3.00;3.00
46591;PMS6003;32314;48.748;9.656;2023-06-19T10:58:42;2.25;2.25;1.75
46591;PMS6003;32314;48.748;9.656;2023-06-19T11:04:24;3.00;3.00;3.00
46591;PMS6003;32314;48.748;9.656;2023-06-19T11:07:13;3.00;3.00;3.00
46591;PMS6003;32314;48.748;9.656;2023-06-19T11:09:59;2.00;2.00;2.00
46591;PMS6003;32314;48.748;9.656;2023-06-19T11:12:45;2.50;2.50;2.25
46591;PMS6003;32314;48.748;9.656;2023-06-19T11:15:37;1.00;1.00;0.00
46591;PMS6003;32314;48.748;9.656;2023-06-19T11:18:28;2.75;2.75;2.25
46591;PMS6003;32314;48.748;9.656;2023-06-19T11:21:14;2.75;2.75;2.75
46591;PMS6003;32314;48.748;9.656;2023-06-19T11:24:02;3.00;3.00;2.75
46591;PMS6003;32314;48.748;9.656;2023-06-19T11:26:55;2.50;2.50;2.00
46591;PMS6003;32314;48.748;9.656;2023-06-19T11:29:45;4.00;4.00;4.00
46591;PMS6003;32314;48.748;9.656;2023-06-19T11:32:32;4.75;4.75;3.00
46591;PMS6003;32314;48.748;9.656;2023-06-19T11:35:21;3.50;3.00;3.00
46591;PMS6003;32314;48.748;9.656;2023-06-19T11:38:07;4.00;4.00;3.00
46591;PMS6003;32314;48.748;9.656;2023-06-19T11:40:54;3.25;3.00;2.00
46591;PMS6003;32314;48.748;9.656;2023-06-19T11:43:42;3.00;3.00;3.00
46591;PMS6003;32314;48.748;9.656;2023-06-19T11:46:30;3.50;3.50;3.00
46591;PMS6003;32314;48.748;9.656;2023-06-19T11:49:17;3.00;3.00;3.00
46591;PMS6003;32314;48.748;9.656;2023-06-19T11:52:05;2.00;2.00;1.25
46591;PMS6003;32314;48.748;9.656;2023-06-19T11:55:02;3.00;3.00;2.75
46591;PMS6003;32314;48.748;9.656;2023-06-19T11:57:49;3.25;3.25;3.00
46591;PMS6003;32314;48.748;9.656;2023-06-19T12:00:38;3.75;3.75;2.75
46591;PMS6003;32314;48.748;9.656;2023-06-19T12:03:24;2.75;2.75;2.25
46591;PMS6003;32314;48.748;9.656;2023-06-19T12:06:10;3.75;3.75;3.75
46591;PMS6003;32314;48.748;9.656;2023-06-19T12:08:56;3.00;3.00;2.50
46591;PMS6003;32314;48.748;9.656;2023-06-19T12:11:42;1.75;1.75;1.25
46591;PMS6003;32314;48.748;9.656;2023-06-19T12:14:28;3.00;2.25;2.00
46591;PMS6003;32314;48.748;9.656;2023-06-19T12:17:17;1.75;1.75;1.75
46591;PMS6003;32314;48.748;9.656;2023-06-19T12:20:03;2.75;2.25;2.00
46591;PMS6003;32314;48.748;9.656;2023-06-19T12:22:53;1.00;1.00;1.00
46591;PMS6003;32314;48.748;9.656;2023-06-19T12:25:40;1.00;1.00;1.00
46591;PMS6003;32314;48.748;9.656;2023-06-19T12:28:26;1.25;1.25;1.25
46591;PMS6003;32314;48.748;9.656;2023-06-19T12:31:12;2.00;1.50;1.00
46591;PMS6003;32314;48.748;9.656;2023-06-19T12:33:58;1.00;1.00;1.00
46591;PMS6003;32314;48.748;9.656;2023-06-19T12:36:44;1.00;1.00;1.00
46591;PMS6003;32314;48.748;9.656;2023-06-19T12:39:29;1.00;1.00;1.00
46591;PMS6003;32314;48.748;9.656;2023-06-19T12:42:17;1.00;1.00;1.00
46591;PMS6003;32314;48.748;9.656;2023-06-19T12:45:03;1.75;1.75;1.25
46591;PMS6003;32314;48.748;9.656;2023-06-19T12:47:49;2.00;2.00;2.00
46591;PMS6003;32314;48.748;9.656;2023-06-19T12:50:34;2.75;2.75;2.00
46591;PMS6003;32314;48.748;9.656;2023-06-19T12:53:21;4.00;2.50;2.00
46591;PMS6003;32314;48.748;9.656;2023-06-19T12:56:12;2.00;2.00;2.00
46591;PMS6003;32314;48.748;9.656;2023-06-19T12:58:58;1.50;1.50;1.50
46591;PMS6003;32314;48.748;9.656;2023-06-19T13:01:46;2.00;2.00;1.50
46591;PMS6003;32314;48.748;9.656;2023-06-19T13:04:32;2.00;2.00;2.00
46591;PMS6003;32314;48.748;9.656;2023-06-19T13:07:17;2.00;2.00;1.75
46591;PMS6003;32314;48.748;9.656;2023-06-19T13:10:03;2.00;2.00;2.00
46591;PMS6003;32314;48.748;9.656;2023-06-19T13:12:51;2.25;2.25;2.00
46591;PMS6003;32314;48.748;9.656;2023-06-19T13:15:37;1.75;1.75;1.00
46591;PMS6003;32314;48.748;9.656;2023-06-19T13:18:23;3.00;3.00;3.00
46591;PMS6003;32314;48.748;9.656;2023-06-19T13:21:08;3.00;3.00;2.75
46591;PMS6003;32314;48.748;9.656;2023-06-19T13:23:57;2.25;2.25;1.75
46591;PMS6003;32314;48.748;9.656;2023-06-19T13:26:43;3.00;3.00;2.50
46591;PMS6003;32314;48.748;9.656;2023-06-19T13:29:29;3.00;3.00;2.00
46591;PMS6003;32314;48.748;9.656;2023-06-19T13:32:15;2.00;2.00;2.00
46591;PMS6003;32314;48.748;9.656;2023-06-19T13:35:01;3.00;3.00;2.25
46591;PMS6003;32314;48.748;9.656;2023-06-19T13:37:47;2.50;2.50;2.00
46591;PMS6003;32314;48.748;9.656;2023-06-19T13:40:33;3.00;3.00;3.00
46591;PMS6003;32314;48.748;9.656;2023-06-19T13:43:18;3.75;3.75;3.25
46591;PMS6003;32314;48.748;9.656;2023-06-19T13:46:05;2.25;2.25;2.00
46591;PMS6003;32314;48.748;9.656;2023-06-19T13:48:52;2.00;2.00;2.00
46591;PMS6003;32314;48.748;9.656;2023-06-19T13:51:38;3.00;3.00;3.00
46591;PMS6003;32314;48.748;9.656;2023-06-19T13:54:24;2.50;2.50;2.00
46591;PMS6003;32314;48.748;9.656;2023-06-19T13:57:10;4.00;4.00;3.25
46591;PMS6003;32314;48.748;9.656;2023-06-19T13:59:56;3.00;3.00;3.00
46591;PMS6003;32314;48.748;9.656;2023-06-19T14:02:42;2.25;2.25;2.00
46591;PMS6003;32314;48.748;9.656;2023-06-19T14:05:28;1.00;1.00;1.00
46591;PMS6003;32314;48.748;9.656;2023-06-19T14:08:13;3.75;3.75;3.00
46591;PMS6003;32314;48.748;9.656;2023-06-19T14:10:59;3.00;3.00;3.00
46591;PMS6003;32314;48.748;9.656;2023-06-19T14:13:45;2.50;2.00;2.00
46591;PMS6003;32314;48.748;9.656;2023-06-19T14:16:31;4.00;4.00;3.75
46591;PMS6003;32314;48.748;9.656;2023-06-19T14:19:17;2.00;2.00;2.00
46591;PMS6003;32314;48.748;9.656;2023-06-19T14:22:05;3.00;3.00;2.25
46591;PMS6003;32314;48.748;9.656;2023-06-19T14:24:51;2.75;2.75;2.75
46591;PMS6003;32314;48.748;9.656;2023-06-19T14:27:39;3.00;3.00;3.00
46591;PMS6003;32314;48.748;9.656;2023-06-19T14:30:25;3.00;3.00;3.00
46591;PMS6003;32314;48.748;9.656;2023-06-19T14:33:14;3.00;3.00;3.00
46591;PMS6003;32314;48.748;9.656;2023-06-19T14:36:03;3.00;3.00;2.00
46591;PMS6003;32314;48.748;9.656;2023-06-19T14:38:49;4.00;4.00;3.50
46591;PMS6003;32314;48.748;9.656;2023-06-19T14:41:38;4.00;4.00;4.00
46591;PMS6003;32314;48.748;9.656;2023-06-19T14:44:24;3.75;3.75;3.00
46591;PMS6003;32314;48.748;9.656;2023-06-19T14:47:09;3.50;3.50;3.50
46591;PMS6003;32314;48.748;9.656;2023-06-19T14:49:55;3.00;3.00;3.00
46591;PMS6003;32314;48.748;9.656;2023-06-19T14:52:41;3.75;3.75;3.00
46591;PMS6003;32314;48.748;9.656;2023-06-19T14:55:27;4.00;4.00;4.00
46591;PMS6003;32314;48.748;9.656;2023-06-19T14:58:13;4.00;4.00;4.00
46591;PMS6003;32314;48.748;9.656;2023-06-19T15:01:03;5.25;5.25;5.00
46591;PMS6003;32314;48.748;9.656;2023-06-19T15:03:49;4.50;4.50;4.25
46591;PMS6003;32314;48.748;9.656;2023-06-19T15:06:35;6.00;6.00;5.00
46591;PMS6003;32314;48.748;9.656;2023-06-19T15:09:20;4.00;4.00;3.75
46591;PMS6003;32314;48.748;9.656;2023-06-19T15:12:19;5.00;5.00;4.00
46591;PMS6003;32314;48.748;9.656;2023-06-19T15:15:05;6.00;6.00;5.00
46591;PMS6003;32314;48.748;9.656;2023-06-19T15:17:54;5.25;5.25;4.00
46591;PMS6003;32314;48.748;9.656;2023-06-19T15:20:45;4.25;4.25;3.50
46591;PMS6003;32314;48.748;9.656;2023-06-19T15:23:33;4.00;4.00;3.75
46591;PMS6003;32314;48.748;9.656;2023-06-19T15:26:22;4.00;4.00;3.25
46591;PMS6003;32314;48.748;9.656;2023-06-19T15:29:10;4.00;4.00;3.00
46591;PMS6003;32314;48.748;9.656;2023-06-19T15:31:56;4.50;4.50;4.00
46591;PMS6003;32314;48.748;9.656;2023-06-19T15:34:42;6.00;6.00;5.75
46591;PMS6003;32314;48.748;9.656;2023-06-19T15:37:28;6.00;6.00;5.00
46591;PMS6003;32314;48.748;9.656;2023-06-19T15:40:13;4.50;4.50;4.00
46591;PMS6003;32314;48.748;9.656;2023-06-19T15:42:59;5.75;5.75;5.00
46591;PMS6003;32314;48.748;9.656;2023-06-19T15:45:47;4.00;4.00;4.00
46591;PMS6003;32314;48.748;9.656;2023-06-19T15:48:34;5.75;5.75;4.00
46591;PMS6003;32314;48.748;9.656;2023-06-19T15:51:20;6.25;6.25;5.25
46591;PMS6003;32314;48.748;9.656;2023-06-19T15:54:06;5.00;4.25;3.50
46591;PMS6003;32314;48.748;9.656;2023-06-19T15:56:52;6.25;6.25;5.25
46591;PMS6003;32314;48.748;9.656;2023-06-19T15:59:38;5.00;5.00;4.25
46591;PMS6003;32314;48.748;9.656;2023-06-19T16:02:24;4.00;4.00;3.75
46591;PMS6003;32314;48.748;9.656;2023-06-19T16:05:10;5.00;5.00;4.75
46591;PMS6003;32314;48.748;9.656;2023-06-19T16:08:01;5.50;5.00;4.00
46591;PMS6003;32314;48.748;9.656;2023-06-19T16:10:47;4.75;4.75;3.75
46591;PMS6003;32314;48.748;9.656;2023-06-19T16:13:33;6.00;6.00;5.75
46591;PMS6003;32314;48.748;9.656;2023-06-19T16:16:18;7.00;5.50;4.75
46591;PMS6003;32314;48.748;9.656;2023-06-19T16:19:04;5.00;5.00;4.50